Time;durP1;ratioP1;P1;durP2;ratioP2;P2;SDS_P1;SDS_P2;PMS_P1;PMS_P2;Temp;Humidity;BMP_temperature;BMP_pressure;BME280_temperature;BME280_humidity;BME280_pressure;Samples;Min_cycle;Max_cycle;Signal;HPM_P1;HPM_P2
2023/06/02 00:02:23;;;;;;;16.20;3.28;;;11.80;99.90;;;;;;5024610;28;20120;-71
2023/06/02 00:04:52;;;;;;;16.38;2.95;;;;;;;;;;5041365;28;20040;-71
2023/06/02 00:07:18;;;;;;;11.23;2.75;;;;;;;;;;5034230;28;20041;-70
2023/06/02 00:09:44;;;;;;;8.20;2.45;;;11.60;99.90;;;;;;5033972;28;20041;-70
2023/06/02 00:12:13;;;;;;;14.45;3.60;;;11.50;99.90;;;;;;5034132;28;20037;-70
2023/06/02 00:14:42;;;;;;;18.17;2.78;;;11.60;99.90;;;;;;5033705;28;20048;-70
2023/06/02 00:17:08;;;;;;;13.65;2.90;;;;;;;;;;5017294;28;20094;-70
2023/06/02 00:19:34;;;;;;;18.27;3.83;;;;;;;;;;5034133;28;20048;-71
2023/06/02 00:22:03;;;;;;;16.23;3.03;;;11.70;99.90;;;;;;5034194;28;20708;-70
2023/06/02 00:24:29;;;;;;;15.73;2.60;;;11.60;99.90;;;;;;5033494;28;20124;-71
2023/06/02 00:26:55;;;;;;;18.63;2.70;;;11.50;99.90;;;;;;5033681;28;20551;-70
2023/06/02 00:29:21;;;;;;;18.40;3.13;;;;;;;;;;5017431;28;20361;-70
2023/06/02 00:31:47;;;;;;;11.48;3.17;;;;;;;;;;5033996;28;20033;-71
2023/06/02 00:34:13;;;;;;;19.10;3.25;;;;;;;;;;5033492;28;20040;-70
2023/06/02 00:36:39;;;;;;;11.70;2.72;;;;;;;;;;5033527;28;20082;-69
2023/06/02 00:39:05;;;;;;;13.48;2.67;;;;;;;;;;5033797;28;20131;-71
2023/06/02 00:41:31;;;;;;;10.75;2.40;;;11.50;99.90;;;;;;5033603;28;20045;-70
2023/06/02 00:43:57;;;;;;;17.08;2.90;;;;;;;;;;5033011;28;20040;-71
2023/06/02 00:46:23;;;;;;;15.50;2.88;;;;;;;;;;5033949;28;20037;-70
2023/06/02 00:48:49;;;;;;;18.15;2.70;;;11.70;99.90;;;;;;5017074;28;20044;-71
2023/06/02 00:51:19;;;;;;;14.35;3.40;;;11.80;99.90;;;;;;5017018;28;20049;-71
2023/06/02 00:53:45;;;;;;;13.07;2.88;;;;;;;;;;5032933;28;20159;-70
2023/06/02 00:56:13;;;;;;;13.57;2.42;;;;;;;;;;5017007;28;20045;-71
2023/06/02 00:58:41;;;;;;;13.05;2.70;;;11.70;99.90;;;;;;5016636;28;20504;-70
2023/06/02 01:01:11;;;;;;;12.38;2.50;;;11.50;99.90;;;;;;5033501;28;20095;-71
2023/06/02 01:03:45;;;;;;;12.38;2.28;;;11.70;99.90;;;;;;5033026;28;20055;-70
2023/06/02 01:06:12;;;;;;;13.73;2.78;;;11.60;99.90;;;;;;5033425;28;20052;-71
2023/06/02 01:08:40;;;;;;;16.13;2.83;;;11.70;99.90;;;;;;5033514;28;20037;-70
2023/06/02 01:11:07;;;;;;;19.65;2.95;;;11.60;99.90;;;;;;5033669;28;20040;-70
2023/06/02 01:13:33;;;;;;;17.60;3.45;;;11.60;99.90;;;;;;5032835;28;20564;-70
2023/06/02 01:15:59;;;;;;;19.00;3.25;;;;;;;;;;5033652;28;20077;-70
2023/06/02 01:18:29;;;;;;;13.38;2.10;;;11.60;99.90;;;;;;5054399;28;20048;-70
2023/06/02 01:20:58;;;;;;;12.75;2.85;;;;;;;;;;5020740;28;20400;-70
2023/06/02 01:23:33;;;;;;;14.05;2.33;;;11.50;99.90;;;;;;5036877;28;20045;-70
2023/06/02 01:26:00;;;;;;;11.55;2.65;;;11.60;99.90;;;;;;5037121;28;20048;-70
2023/06/02 01:28:26;;;;;;;14.60;2.97;;;11.60;99.90;;;;;;5020073;28;20068;-70
2023/06/02 01:31:10;;;;;;;14.52;2.95;;;11.50;99.90;;;;;;5037219;28;20460;-71
2023/06/02 01:33:42;;;;;;;;;;;11.60;99.90;;;;;;5036713;28;20041;-71
2023/06/02 01:36:08;;;;;;;12.20;2.65;;;;;;;;;;5037069;28;19924;-71
2023/06/02 01:38:35;;;;;;;16.67;3.17;;;11.40;99.90;;;;;;5036820;28;20090;-71
2023/06/02 01:41:03;;;;;;;20.67;3.80;;;11.50;99.90;;;;;;5036886;28;20433;-70
2023/06/02 01:43:32;;;;;;;13.18;2.53;;;11.50;99.90;;;;;;5036373;28;20037;-70
2023/06/02 01:45:58;;;;;;;18.00;4.35;;;11.50;99.90;;;;;;5036699;28;20128;-70
2023/06/02 01:48:26;;;;;;;11.38;2.33;;;11.40;99.90;;;;;;5036546;28;20048;-71
2023/06/02 01:50:52;;;;;;;16.40;2.80;;;;;;;;;;5036328;28;20052;-70
2023/06/02 01:53:20;;;;;;;13.00;3.63;;;;;;;;;;5036407;28;20045;-70
2023/06/02 01:55:47;;;;;;;14.88;2.88;;;11.50;99.90;;;;;;5036468;28;20500;-71
2023/06/02 01:58:12;;;;;;;14.82;3.15;;;11.60;99.90;;;;;;5036319;28;20041;-70
2023/06/02 02:00:38;;;;;;;15.77;3.40;;;;;;;;;;5036324;28;20120;-70
2023/06/02 02:03:04;;;;;;;15.10;3.17;;;;;;;;;;5053606;28;20573;-70
2023/06/02 02:05:30;;;;;;;17.10;3.38;;;11.30;99.90;;;;;;5035743;28;20033;-71
2023/06/02 02:07:57;;;;;;;16.63;3.53;;;;;;;;;;5036232;28;20037;-70
2023/06/02 02:10:23;;;;;;;13.70;2.45;;;;;;;;;;5019803;28;20135;-70
2023/06/02 02:12:49;;;;;;;15.23;3.22;;;11.50;99.90;;;;;;5036204;28;20048;-71
2023/06/02 02:15:15;;;;;;;19.67;4.03;;;11.60;99.90;;;;;;5035821;28;20041;-71
2023/06/02 02:17:45;;;;;;;16.67;2.70;;;11.60;99.90;;;;;;5036031;28;20071;-70
2023/06/02 02:20:18;;;;;;;8.93;2.67;;;11.40;99.90;;;;;;5036091;28;20041;-71
2023/06/02 02:22:45;;;;;;;11.73;3.13;;;11.70;99.90;;;;;;5035982;28;20032;-71
2023/06/02 02:25:11;;;;;;;12.95;3.45;;;11.50;99.90;;;;;;5035747;28;20086;-70
2023/06/02 02:27:38;;;;;;;12.85;2.85;;;11.60;99.90;;;;;;5035758;28;20041;-71
2023/06/02 02:30:05;;;;;;;19.45;3.90;;;11.40;99.90;;;;;;5035360;28;20040;-70
2023/06/02 02:32:33;;;;;;;13.20;2.63;;;;;;;;;;5035716;28;20516;-70
2023/06/02 02:34:59;;;;;;;14.82;4.07;;;11.60;99.90;;;;;;5052041;28;20045;-71
2023/06/02 02:37:24;;;;;;;14.43;2.90;;;11.50;99.90;;;;;;5035260;28;20045;-70
2023/06/02 02:39:50;;;;;;;16.65;3.40;;;;;;;;;;5036052;28;20045;-70
2023/06/02 02:42:16;;;;;;;11.30;2.47;;;11.50;99.90;;;;;;5035691;28;20036;-70
2023/06/02 02:44:41;;;;;;;25.55;4.38;;;11.50;99.90;;;;;;5019032;28;20037;-71
2023/06/02 02:47:07;;;;;;;18.38;3.20;;;11.50;99.90;;;;;;5035550;28;20127;-70
2023/06/02 02:49:33;;;;;;;17.40;3.80;;;11.50;99.90;;;;;;5035551;28;20522;-71
2023/06/02 02:51:58;;;;;;;13.70;2.47;;;11.60;99.90;;;;;;5035894;28;20110;-71
2023/06/02 02:54:26;;;;;;;21.25;3.20;;;11.50;99.90;;;;;;5034672;28;20044;-70
2023/06/02 02:56:52;;;;;;;12.90;3.55;;;;;;;;;;5035328;28;20049;-70
2023/06/02 02:59:17;;;;;;;11.52;3.65;;;11.50;99.90;;;;;;5019125;28;20047;-71
2023/06/02 03:01:44;;;;;;;15.48;3.05;;;;;;;;;;5035644;28;20123;-70
2023/06/02 03:04:21;;;;;;;16.40;3.08;;;11.40;99.90;;;;;;5034627;28;20037;-71
2023/06/02 03:06:49;;;;;;;19.75;3.95;;;11.50;99.90;;;;;;5018687;28;20047;-70
2023/06/02 03:09:18;;;;;;;20.88;3.65;;;11.30;99.90;;;;;;5035163;28;20528;-70
2023/06/02 03:11:44;;;;;;;13.93;2.83;;;11.50;99.90;;;;;;5035202;28;20079;-71
2023/06/02 03:14:10;;;;;;;14.38;2.90;;;11.50;99.90;;;;;;5034572;28;20048;-70
2023/06/02 03:16:39;;;;;;;24.15;4.80;;;11.50;99.90;;;;;;5035101;28;20036;-70
2023/06/02 03:19:05;;;;;;;20.10;3.50;;;11.50;99.90;;;;;;5034852;28;20037;-71
2023/06/02 03:21:31;;;;;;;17.77;3.03;;;11.40;99.90;;;;;;5034725;28;20041;-71
2023/06/02 03:23:58;;;;;;;29.00;4.47;;;11.20;99.90;;;;;;5034666;28;20094;-70
2023/06/02 03:26:26;;;;;;;18.48;3.35;;;11.50;99.90;;;;;;5034938;28;20040;-71
2023/06/02 03:28:54;;;;;;;16.50;3.20;;;11.60;99.90;;;;;;5034749;28;20040;-70
2023/06/02 03:31:20;;;;;;;20.08;4.40;;;11.60;99.90;;;;;;5034767;28;20044;-71
2023/06/02 03:33:46;;;;;;;12.38;3.00;;;;;;;;;;5051935;28;20524;-71
2023/06/02 03:36:12;;;;;;;16.33;3.63;;;11.50;99.90;;;;;;5034694;28;20045;-70
2023/06/02 03:38:38;;;;;;;21.05;3.45;;;11.60;99.90;;;;;;5034398;28;20045;-71
2023/06/02 03:41:04;;;;;;;20.50;4.32;;;;;;;;;;5017533;28;20515;-70
2023/06/02 03:43:30;;;;;;;14.50;2.85;;;11.60;99.90;;;;;;5018041;28;20044;-70
2023/06/02 03:45:56;;;;;;;16.67;2.90;;;;;;;;;;5034515;28;20036;-70
2023/06/02 03:48:22;;;;;;;14.18;3.05;;;;;;;;;;5034113;28;20045;-70
2023/06/02 03:50:48;;;;;;;13.82;3.40;;;;;;;;;;5034427;28;20128;-70
2023/06/02 03:53:14;;;;;;;17.10;2.92;;;;;;;;;;5034222;28;20037;-70
2023/06/02 03:55:40;;;;;;;21.27;3.92;;;;;;;;;;5034373;28;20123;-70
2023/06/02 03:58:05;;;;;;;14.95;4.43;;;11.60;99.90;;;;;;5034207;28;20079;-70
2023/06/02 04:00:31;;;;;;;22.42;3.95;;;;;;;;;;5017773;28;20535;-70
2023/06/02 04:02:57;;;;;;;21.38;5.13;;;11.80;99.90;;;;;;5034298;28;20045;-70
2023/06/02 04:05:23;;;;;;;13.80;2.70;;;11.90;99.90;;;;;;5033932;28;20036;-70
2023/06/02 04:07:49;;;;;;;13.70;3.25;;;11.70;99.90;;;;;;5040961;28;20492;-70
2023/06/02 04:10:15;;;;;;;21.17;3.83;;;11.60;99.90;;;;;;5028087;28;20041;-71
2023/06/02 04:12:41;;;;;;;16.80;3.40;;;;;;;;;;5041320;28;20416;-70
2023/06/02 04:15:07;;;;;;;18.20;4.30;;;;;;;;;;5034007;28;20051;-70
2023/06/02 04:17:33;;;;;;;19.35;3.85;;;;;;;;;;5034012;28;20045;-70
2023/06/02 04:19:59;;;;;;;19.20;3.58;;;11.90;99.90;;;;;;5034205;28;20059;-70
2023/06/02 04:22:24;;;;;;;20.23;4.22;;;11.90;99.90;;;;;;5034054;28;20049;-70
2023/06/02 04:24:50;;;;;;;19.02;3.95;;;;;;;;;;5033543;28;20523;-70
2023/06/02 04:27:17;;;;;;;18.63;3.45;;;11.90;99.90;;;;;;5017370;28;20033;-70
2023/06/02 04:29:43;;;;;;;17.98;3.70;;;;;;;;;;5017469;28;20079;-71
2023/06/02 04:32:09;;;;;;;16.35;3.70;;;11.90;99.90;;;;;;5033793;28;20662;-70
2023/06/02 04:34:35;;;;;;;14.98;4.07;;;11.80;99.90;;;;;;5033366;28;20043;-70
2023/06/02 04:37:02;;;;;;;14.82;3.72;;;;;;;;;;5033558;28;20508;-70
2023/06/02 04:39:28;;;;;;;18.77;3.33;;;;;;;;;;5033938;28;20468;-70
2023/06/02 04:41:56;;;;;;;12.95;4.07;;;;;;;;;;5033934;28;20064;-70
2023/06/02 04:44:23;;;;;;;19.58;4.38;;;;;;;;;;5033026;28;20045;-70
2023/06/02 04:46:49;;;;;;;13.00;3.10;;;12.00;99.90;;;;;;5033749;28;20052;-71
2023/06/02 04:49:15;;;;;;;19.58;3.00;;;11.90;99.90;;;;;;5033724;28;20385;-70
2023/06/02 04:51:41;;;;;;;20.13;4.07;;;12.10;99.90;;;;;;5034535;28;20049;-70
2023/06/02 04:54:07;;;;;;;24.45;4.38;;;12.00;99.90;;;;;;5037004;28;20047;-70
2023/06/02 04:56:34;;;;;;;18.08;3.83;;;;;;;;;;5037629;28;20459;-70
2023/06/02 04:58:59;;;;;;;14.10;3.70;;;11.90;99.90;;;;;;5037267;28;20579;-70
2023/06/02 05:01:28;;;;;;;14.13;3.40;;;;;;;;;;5037107;28;20119;-70
2023/06/02 05:03:53;;;;;;;14.90;3.38;;;12.10;99.90;;;;;;5037200;28;20103;-71
2023/06/02 05:06:20;;;;;;;16.95;3.70;;;;;;;;;;5037767;28;20068;-71
2023/06/02 05:08:45;;;;;;;23.63;4.00;;;12.10;99.90;;;;;;5020535;28;20542;-70
2023/06/02 05:11:11;;;;;;;21.00;3.42;;;;;;;;;;5037178;28;20041;-70
2023/06/02 05:13:37;;;;;;;14.13;3.75;;;;;;;;;;5020386;28;20049;-70
2023/06/02 05:16:03;;;;;;;17.27;3.65;;;12.30;99.90;;;;;;5037417;28;20123;-70
2023/06/02 05:18:29;;;;;;;17.77;4.60;;;12.10;99.90;;;;;;5036374;28;20416;-71
2023/06/02 05:20:55;;;;;;;16.55;3.33;;;;;;;;;;5020883;28;20066;-70
2023/06/02 05:23:21;;;;;;;16.95;4.00;;;12.10;99.90;;;;;;5036590;28;20051;-70
2023/06/02 05:25:49;;;;;;;18.33;4.07;;;12.20;99.90;;;;;;5037090;28;20033;-70
2023/06/02 05:28:15;;;;;;;22.48;4.05;;;12.30;99.90;;;;;;5036446;28;20033;-70
2023/06/02 05:30:41;;;;;;;21.65;4.45;;;;;;;;;;5035761;28;20492;-70
2023/06/02 05:33:07;;;;;;;25.13;4.50;;;;;;;;;;5035535;28;20252;-70
2023/06/02 05:35:33;;;;;;;19.13;3.47;;;;;;;;;;5037049;28;20055;-70
2023/06/02 05:37:58;;;;;;;18.35;4.10;;;12.30;99.90;;;;;;5036725;28;20559;-70
2023/06/02 05:40:24;;;;;;;17.05;3.70;;;12.20;99.90;;;;;;5053707;28;20051;-70
2023/06/02 05:42:52;;;;;;;24.83;3.75;;;12.30;99.90;;;;;;5019562;28;20037;-71
2023/06/02 05:45:18;;;;;;;15.73;4.00;;;12.40;99.90;;;;;;5027141;28;20034;-70
2023/06/02 05:47:44;;;;;;;15.55;4.50;;;12.40;99.90;;;;;;5016746;28;20040;-70
2023/06/02 05:50:11;;;;;;;18.98;3.65;;;12.20;99.90;;;;;;5016996;28;20033;-71
2023/06/02 05:52:36;;;;;;;19.52;3.63;;;12.50;99.90;;;;;;5001526;28;20075;-70
2023/06/02 05:55:02;;;;;;;23.77;4.47;;;;;;;;;;5010996;28;20076;-70
2023/06/02 05:57:28;;;;;;;24.05;4.35;;;;;;;;;;5031850;28;20080;-66
2023/06/02 05:59:54;;;;;;;22.45;3.72;;;12.50;99.90;;;;;;5031914;28;20492;-70
2023/06/02 06:02:20;;;;;;;19.67;4.03;;;;;;;;;;5027642;28;20119;-70
2023/06/02 06:04:46;;;;;;;21.65;4.40;;;;;;;;;;5027752;28;20044;-70
2023/06/02 06:07:12;;;;;;;20.52;4.40;;;;;;;;;;5024521;28;20439;-70
2023/06/02 06:09:38;;;;;;;19.85;4.22;;;;;;;;;;5012854;28;20044;-70
2023/06/02 06:12:04;;;;;;;18.50;4.03;;;12.80;99.90;;;;;;5042298;28;20033;-70
2023/06/02 06:14:30;;;;;;;24.45;4.47;;;;;;;;;;5031088;28;20037;-70
2023/06/02 06:16:56;;;;;;;25.70;5.72;;;;;;;;;;5022554;28;20499;-70
2023/06/02 06:19:22;;;;;;;21.08;4.32;;;;;;;;;;5031035;28;20037;-70
2023/06/02 06:21:48;;;;;;;18.95;4.88;;;12.90;99.90;;;;;;5027975;28;20463;-70
2023/06/02 06:24:14;;;;;;;25.02;4.80;;;;;;;;;;5015782;28;20041;-71
2023/06/02 06:26:41;;;;;;;29.00;4.50;;;;;;;;;;5022598;28;20049;-70
2023/06/02 06:29:07;;;;;;;18.17;3.92;;;;;;;;;;5031297;28;20099;-70
2023/06/02 06:31:32;;;;;;;21.92;5.05;;;13.20;99.90;;;;;;5005878;28;20056;-70
2023/06/02 06:33:59;;;;;;;25.90;4.45;;;13.20;99.90;;;;;;5018541;28;20131;-66
2023/06/02 06:36:25;;;;;;;19.08;5.22;;;;;;;;;;5013576;28;20037;-70
2023/06/02 06:38:51;;;;;;;24.83;5.13;;;;;;;;;;5022542;28;20106;-70
2023/06/02 06:41:21;;;;;;;27.40;5.60;;;13.50;99.90;;;;;;5048319;28;20524;-69
2023/06/02 06:43:47;;;;;;;22.05;5.10;;;13.40;99.90;;;;;;5013790;28;20037;-68
2023/06/02 06:46:15;;;;;;;21.92;4.85;;;13.50;99.90;;;;;;5031149;28;20403;-70
2023/06/02 06:48:41;;;;;;;26.85;5.20;;;;;;;;;;5001400;28;20060;-70
2023/06/02 06:51:07;;;;;;;35.22;6.35;;;;;;;;;;5026652;28;20067;-68
2023/06/02 06:53:32;;;;;;;22.30;4.45;;;13.70;99.90;;;;;;5006545;28;20123;-70
2023/06/02 06:56:00;;;;;;;23.23;5.57;;;;;;;;;;5022247;28;20049;-70
2023/06/02 06:58:26;;;;;;;18.10;4.72;;;13.80;99.90;;;;;;5011164;28;20515;-71
2023/06/02 07:00:51;;;;;;;25.13;5.50;;;;;;;;;;5005494;28;20036;-71
2023/06/02 07:03:17;;;;;;;24.08;4.65;;;13.70;99.90;;;;;;5027186;28;20420;-71
2023/06/02 07:05:43;;;;;;;29.27;6.18;;;13.90;99.90;;;;;;5030256;28;20033;-71
2023/06/02 07:08:09;;;;;;;22.40;5.72;;;;;;;;;;5027184;28;20037;-72
2023/06/02 07:10:35;;;;;;;24.40;5.88;;;;;;;;;;5013655;28;20037;-71
2023/06/02 07:13:01;;;;;;;20.83;5.68;;;14.00;99.90;;;;;;5027886;28;20044;-70
2023/06/02 07:15:27;;;;;;;26.00;5.25;;;;;;;;;;5029081;28;20397;-71
2023/06/02 07:17:53;;;;;;;32.50;5.32;;;;;;;;;;5029622;28;20076;-71
2023/06/02 07:20:19;;;;;;;19.63;4.50;;;;;;;;;;5029404;28;20094;-71
2023/06/02 07:22:45;;;;;;;26.45;5.28;;;;;;;;;;5004460;28;20045;-70
2023/06/02 07:25:11;;;;;;;20.88;5.88;;;;;;;;;;5029270;28;20128;-71
2023/06/02 07:27:37;;;;;;;22.50;5.47;;;14.40;99.90;;;;;;5007396;28;20133;-71
2023/06/02 07:30:04;;;;;;;21.25;5.43;;;14.80;99.90;;;;;;5029726;28;20167;-71
2023/06/02 07:32:30;;;;;;;20.35;4.53;;;;;;;;;;5024177;28;20122;-71
2023/06/02 07:34:56;;;;;;;20.83;4.75;;;14.60;99.90;;;;;;5017016;28;20471;-71
2023/06/02 07:37:21;;;;;;;23.42;4.88;;;14.80;99.90;;;;;;5066301;28;20045;-71
2023/06/02 07:39:47;;;;;;;26.30;5.63;;;15.00;99.90;;;;;;5052131;28;20033;-71
2023/06/02 07:42:12;;;;;;;19.45;4.55;;;15.10;99.90;;;;;;5014590;28;20029;-71
2023/06/02 07:44:38;;;;;;;20.15;5.18;;;15.50;99.90;;;;;;5033101;28;20063;-71
2023/06/02 07:47:07;;;;;;;16.73;5.70;;;15.30;99.90;;;;;;5015125;28;20067;-72
2023/06/02 07:49:33;;;;;;;16.80;4.80;;;15.40;99.90;;;;;;5016411;28;20116;-71
2023/06/02 07:51:59;;;;;;;23.02;5.03;;;;;;;;;;5025259;28;20029;-71
2023/06/02 07:54:25;;;;;;;22.65;4.22;;;;;;;;;;5022951;28;20048;-71
2023/06/02 07:56:51;;;;;;;18.10;4.30;;;15.50;99.90;;;;;;5031990;28;20044;-71
2023/06/02 07:59:18;;;;;;;17.08;4.55;;;15.40;99.90;;;;;;5025472;28;20034;-71
2023/06/02 08:01:45;;;;;;;23.15;4.55;;;15.90;99.90;;;;;;5032531;28;20549;-71
2023/06/02 08:04:11;;;;;;;15.43;3.97;;;16.10;99.90;;;;;;5032651;28;20076;-70
2023/06/02 08:06:36;;;;;;;22.92;3.97;;;16.20;99.90;;;;;;5033644;28;20065;-70
2023/06/02 08:09:03;;;;;;;17.67;4.55;;;16.10;99.90;;;;;;5017000;28;20565;-70
2023/06/02 08:11:29;;;;;;;23.77;4.65;;;;;;;;;;5033415;28;20071;-71
2023/06/02 08:13:55;;;;;;;23.98;4.78;;;;;;;;;;5033179;28;20500;-70
2023/06/02 08:16:20;;;;;;;18.05;4.00;;;17.20;99.90;;;;;;5017031;28;20043;-71
2023/06/02 08:18:47;;;;;;;16.92;3.40;;;16.90;99.90;;;;;;5033784;28;20041;-70
2023/06/02 08:21:12;;;;;;;16.23;3.85;;;17.40;99.90;;;;;;5034272;28;20087;-70
2023/06/02 08:23:38;;;;;;;15.85;3.40;;;;;;;;;;5035678;28;20037;-70
2023/06/02 08:26:04;;;;;;;20.05;4.47;;;17.60;99.90;;;;;;5040155;28;20036;-70
2023/06/02 08:28:33;;;;;;;15.82;3.55;;;17.80;99.90;;;;;;5023334;28;20032;-71
2023/06/02 08:31:00;;;;;;;14.35;3.53;;;17.70;99.90;;;;;;5037967;28;20044;-71
2023/06/02 08:33:26;;;;;;;13.18;3.65;;;17.80;99.90;;;;;;5032856;28;20052;-70
2023/06/02 08:35:52;;;;;;;12.57;3.00;;;17.20;99.90;;;;;;5032294;28;20109;-71
2023/06/02 08:38:18;;;;;;;17.17;3.60;;;16.70;99.90;;;;;;5033185;28;20500;-71
2023/06/02 08:40:46;;;;;;;14.25;4.07;;;17.20;99.90;;;;;;5031655;28;20045;-71
2023/06/02 08:43:15;;;;;;;20.88;4.00;;;;;;;;;;5031670;28;20041;-69
2023/06/02 08:45:42;;;;;;;19.55;4.05;;;17.40;99.90;;;;;;5031244;28;20052;-70
2023/06/02 08:48:16;;;;;;;20.30;3.13;;;17.90;99.90;;;;;;5031702;28;20426;-70
2023/06/02 08:50:46;;;;;;;14.75;3.10;;;17.70;99.90;;;;;;5031491;28;20512;-69
2023/06/02 08:53:14;;;;;;;19.58;4.00;;;17.60;99.90;;;;;;5032381;28;20063;-69
2023/06/02 08:55:41;;;;;;;13.30;3.65;;;17.10;99.90;;;;;;5032992;28;20048;-70
2023/06/02 08:58:10;;;;;;;16.15;3.72;;;17.00;99.90;;;;;;5050981;28;20041;-70
2023/06/02 09:00:38;;;;;;;12.65;2.95;;;17.40;99.90;;;;;;5033234;28;20041;-69
2023/06/02 09:03:04;;;;;;;17.92;3.67;;;17.40;99.90;;;;;;5033517;28;20523;-69
2023/06/02 09:05:34;;;;;;;15.85;3.13;;;17.60;99.90;;;;;;5032920;28;20040;-70
2023/06/02 09:08:10;;;;;;;14.48;2.72;;;17.80;99.90;;;;;;5033690;28;20527;-70
2023/06/02 09:10:40;;;;;;;16.92;3.33;;;17.90;99.90;;;;;;5033392;28;20072;-71
2023/06/02 09:13:09;;;;;;;8.70;2.35;;;18.10;99.90;;;;;;5050992;28;20094;-70
2023/06/02 09:15:36;;;;;;;14.13;3.60;;;18.10;99.90;;;;;;5033273;28;20057;-70
2023/06/02 09:18:12;;;;;;;11.98;2.50;;;18.50;99.90;;;;;;5033170;28;20120;-70
2023/06/02 09:20:39;;;;;;;10.98;3.00;;;19.00;99.90;;;;;;5033088;28;20037;-71
2023/06/02 09:23:05;;;;;;;16.70;2.92;;;18.90;99.90;;;;;;5033189;28;20032;-70
2023/06/02 09:25:33;;;;;;;8.88;2.50;;;18.50;99.90;;;;;;5032354;28;20045;-70
2023/06/02 09:28:00;;;;;;;10.10;2.60;;;18.50;99.90;;;;;;5016296;28;20037;-70
2023/06/02 09:30:27;;;;;;;14.02;3.38;;;18.10;99.90;;;;;;5033145;28;20045;-70
2023/06/02 09:32:53;;;;;;;15.75;2.45;;;18.30;99.90;;;;;;5016551;28;20086;-70
2023/06/02 09:35:36;;;;;;;5.90;2.30;;;18.90;99.90;;;;;;5032695;28;20513;-71
2023/06/02 09:38:05;;;;;;;10.18;2.33;;;19.00;99.90;;;;;;5033958;28;20513;-70
2023/06/02 09:40:33;;;;;;;9.43;2.78;;;18.80;99.90;;;;;;5036661;28;20049;-71
2023/06/02 09:43:01;;;;;;;6.10;1.80;;;19.00;99.90;;;;;;5036570;28;20033;-70
2023/06/02 09:45:27;;;;;;;7.28;1.88;;;18.60;99.90;;;;;;5051376;22;20049;-72
2023/06/02 09:47:53;;;;;;;9.25;2.28;;;18.50;99.90;;;;;;5054280;28;20052;-71
2023/06/02 09:50:32;;;;;;;11.05;2.58;;;18.80;99.90;;;;;;5036706;28;20045;-72
2023/06/02 09:53:15;;;;;;;3.70;1.88;;;18.80;99.90;;;;;;5036378;28;20044;-72
2023/06/02 09:55:41;;;;;;;3.38;1.33;;;18.90;99.90;;;;;;5019515;28;20136;-72
2023/06/02 09:58:07;;;;;;;10.55;2.45;;;19.10;99.90;;;;;;5036128;28;20077;-72
2023/06/02 10:00:37;;;;;;;8.43;1.85;;;19.00;99.90;;;;;;5019958;28;20048;-72
2023/06/02 10:03:04;;;;;;;8.35;1.80;;;19.30;99.90;;;;;;5047558;28;20040;-71
2023/06/02 10:05:30;;;;;;;9.75;1.70;;;19.30;99.90;;;;;;5055757;28;20037;-71
2023/06/02 10:08:01;;;;;;;7.15;2.00;;;19.30;99.90;;;;;;5039737;28;20040;-71
2023/06/02 10:11:03;;;;;;;7.75;3.25;;;19.70;99.90;;;;;;5056239;28;20063;-72
2023/06/02 10:13:52;;;;;;;2.22;1.30;;;19.70;99.90;;;;;;5039111;28;20131;-71
2023/06/02 10:16:40;;;;;;;7.38;1.75;;;19.30;99.90;;;;;;5039472;28;20040;-72
2023/06/02 10:19:14;;;;;;;6.18;1.33;;;19.00;99.90;;;;;;5056183;28;20127;-72
2023/06/02 10:21:58;;;;;;;5.53;1.63;;;19.30;99.90;;;;;;5055609;28;20135;-72
2023/06/02 10:24:29;;;;;;;;;;;19.30;99.90;;;;;;5055784;28;20064;-71
2023/06/02 10:27:05;;;;;;;4.97;1.50;;;19.50;99.90;;;;;;5056275;28;20365;-71
2023/06/02 10:29:33;;;;;;;7.28;2.00;;;19.50;99.90;;;;;;5039554;28;20048;-72
2023/06/02 10:32:00;;;;;;;7.20;2.28;;;19.40;99.90;;;;;;5055868;28;20044;-72
2023/06/02 10:34:34;;;;;;;9.45;1.98;;;19.10;99.90;;;;;;5055324;28;20040;-72
2023/06/02 10:37:00;;;;;;;8.27;1.45;;;19.30;99.90;;;;;;5055411;28;20380;-72
2023/06/02 10:39:44;;;;;;;3.42;1.73;;;19.60;99.90;;;;;;5055735;28;20049;-72
2023/06/02 10:42:12;;;;;;;5.07;1.30;;;19.60;99.90;;;;;;5039290;28;20060;-73
2023/06/02 10:44:37;;;;;;;5.95;1.42;;;19.40;99.90;;;;;;5055189;28;20044;-72
2023/06/02 10:47:18;;;;;;;2.97;1.52;;;19.90;99.90;;;;;;5036799;28;20086;-73
2023/06/02 10:50:02;;;;;;;4.47;1.45;;;20.10;99.90;;;;;;5034657;28;20044;-73
2023/06/02 10:52:30;;;;;;;3.88;1.52;;;19.60;99.90;;;;;;5018712;28;20099;-72
2023/06/02 10:55:07;;;;;;;3.83;1.20;;;19.80;99.90;;;;;;5031666;28;20034;-72
2023/06/02 10:57:58;;;;;;;5.40;1.33;;;20.00;99.90;;;;;;5031795;28;20033;-72
2023/06/02 11:00:32;;;;;;;4.88;1.38;;;20.00;99.90;;;;;;5033764;28;20078;-71
2023/06/02 11:03:04;;;;;;;5.35;1.70;;;19.50;99.90;;;;;;5015448;28;20063;-73
2023/06/02 11:05:32;;;;;;;3.67;1.42;;;19.40;99.90;;;;;;5016614;28;20558;-73
2023/06/02 11:08:14;;;;;;;5.38;1.90;;;19.70;99.90;;;;;;5033656;28;20045;-72
2023/06/02 11:10:58;;;;;;;3.42;1.10;;;20.10;99.90;;;;;;5026208;28;20512;-72
2023/06/02 11:13:28;;;;;;;4.28;1.65;;;20.00;99.80;;;;;;5016945;28;20409;-72
2023/06/02 11:15:53;;;;;;;3.50;1.30;;;19.90;99.50;;;;;;5018101;28;20048;-72
2023/06/02 11:18:22;;;;;;;6.80;1.45;;;21.00;99.10;;;;;;5017658;28;20484;-72
2023/06/02 11:20:50;;;;;;;4.95;1.45;;;20.10;99.10;;;;;;5033493;28;20421;-72
2023/06/02 11:23:17;;;;;;;3.13;1.10;;;19.70;99.30;;;;;;5033333;28;20033;-73
2023/06/02 11:26:04;;;;;;;4.50;0.95;;;19.50;98.60;;;;;;5016001;28;20029;-72
2023/06/02 11:28:30;;;;;;;2.75;1.30;;;20.00;99.20;;;;;;5016911;28;20508;-71
2023/06/02 11:31:12;;;;;;;5.10;1.48;;;20.30;99.50;;;;;;5017418;28;20083;-71
2023/06/02 11:33:47;;;;;;;2.08;1.13;;;20.40;98.50;;;;;;5014249;28;20052;-73
2023/06/02 11:36:13;;;;;;;4.53;1.10;;;20.60;98.90;;;;;;5014482;28;20079;-71
2023/06/02 11:38:39;;;;;;;2.08;1.13;;;20.80;98.50;;;;;;5028849;28;20049;-72
2023/06/02 11:41:12;;;;;;;2.60;0.98;;;21.60;98.00;;;;;;5034097;28;20052;-72
2023/06/02 11:44:01;;;;;;;4.32;0.90;;;20.50;98.60;;;;;;5032805;28;20032;-73
2023/06/02 11:46:27;;;;;;;3.65;1.05;;;20.70;97.40;;;;;;5017038;28;20492;-72
2023/06/02 11:48:52;;;;;;;6.25;1.70;;;21.20;97.20;;;;;;5033327;28;20055;-72
2023/06/02 11:51:18;;;;;;;4.97;1.15;;;21.10;97.40;;;;;;5032282;28;20420;-72
2023/06/02 11:53:45;;;;;;;3.92;1.30;;;20.10;97.10;;;;;;5033403;28;20041;-72
2023/06/02 11:56:12;;;;;;;1.88;0.95;;;20.70;98.00;;;;;;5017557;28;20041;-72
2023/06/02 11:58:45;;;;;;;2.35;0.88;;;21.00;98.30;;;;;;5032489;28;20129;-72
2023/06/02 12:01:17;;;;;;;3.80;1.17;;;20.70;99.70;;;;;;5033190;28;20583;-73
2023/06/02 12:04:02;;;;;;;6.72;1.38;;;20.80;98.50;;;;;;5032213;28;20045;-73
2023/06/02 12:06:28;;;;;;;8.90;1.80;;;21.00;98.80;;;;;;5014603;28;20041;-73
2023/06/02 12:08:54;;;;;;;4.13;1.42;;;20.60;99.30;;;;;;5015977;28;20481;-73
2023/06/02 12:11:25;;;;;;;5.82;1.40;;;20.50;98.70;;;;;;5032680;28;20070;-72
2023/06/02 12:13:57;;;;;;;5.72;1.58;;;20.80;99.20;;;;;;5020046;28;20044;-73
2023/06/02 12:16:27;;;;;;;5.32;1.10;;;21.40;99.80;;;;;;5014667;28;20115;-73
2023/06/02 12:19:15;;;;;;;2.97;1.38;;;20.70;99.40;;;;;;5033000;28;20037;-73
2023/06/02 12:21:41;;;;;;;5.60;1.80;;;20.70;99.10;;;;;;5014037;28;20040;-73
2023/06/02 12:24:07;;;;;;;9.13;1.77;;;20.80;99.70;;;;;;5032374;28;20516;-73
2023/06/02 12:26:40;;;;;;;4.35;1.70;;;20.80;99.90;;;;;;5033628;28;20037;-73
2023/06/02 12:29:07;;;;;;;8.50;1.98;;;21.10;99.90;;;;;;5033532;28;20431;-73
2023/06/02 12:31:32;;;;;;;3.72;1.50;;;20.40;99.90;;;;;;5033180;28;20041;-73
2023/06/02 12:33:58;;;;;;;6.70;1.67;;;20.60;99.90;;;;;;5032447;28;20037;-73
2023/06/02 12:36:23;;;;;;;3.75;1.60;;;21.10;99.70;;;;;;5031965;28;20073;-73
2023/06/02 12:38:49;;;;;;;6.95;1.73;;;20.70;99.90;;;;;;5013156;28;20120;-73
2023/06/02 12:41:15;;;;;;;6.45;1.65;;;20.60;99.90;;;;;;5028318;28;20398;-74
2023/06/02 12:43:41;;;;;;;6.88;3.45;;;20.50;99.90;;;;;;5032172;28;20040;-73
2023/06/02 12:46:07;;;;;;;8.93;1.90;;;20.50;99.90;;;;;;5016225;28;20037;-73
2023/06/02 12:48:33;;;;;;;8.82;2.40;;;20.10;99.90;;;;;;5016517;28;20048;-74
2023/06/02 12:50:59;;;;;;;8.05;2.50;;;;;;;;;;5016480;28;20041;-73
2023/06/02 12:53:25;;;;;;;8.68;2.05;;;20.30;99.90;;;;;;5015074;28;20093;-73
2023/06/02 12:55:51;;;;;;;9.43;1.83;;;20.80;99.90;;;;;;5032373;28;20045;-73
2023/06/02 12:58:17;;;;;;;8.80;2.35;;;20.20;99.90;;;;;;5031865;28;20060;-73
2023/06/02 13:00:43;;;;;;;6.22;1.80;;;21.10;99.90;;;;;;5015775;28;20420;-73
2023/06/02 13:03:09;;;;;;;5.78;2.58;;;21.20;99.90;;;;;;5027359;28;20060;-73
2023/06/02 13:05:35;;;;;;;7.55;1.73;;;21.00;99.90;;;;;;5037711;28;20114;-73
2023/06/02 13:08:04;;;;;;;4.78;1.80;;;20.60;99.90;;;;;;5025214;28;20051;-73
2023/06/02 13:10:30;;;;;;;8.20;2.63;;;21.10;99.90;;;;;;5017578;28;20044;-73
2023/06/02 13:12:56;;;;;;;5.18;2.20;;;20.40;99.90;;;;;;5040745;28;20036;-74